createdAt,value
2018-08-02T00:00:13.970Z,62.92
2018-08-02T00:01:13.974Z,63.67
2018-08-02T00:02:13.968Z,63.67
2018-08-02T00:03:13.964Z,63.37
2018-08-02T00:04:13.966Z,63.76
2018-08-02T00:05:13.966Z,63.47
2018-08-02T00:06:13.963Z,64.15
2018-08-02T00:07:13.964Z,63.79
2018-08-02T00:08:13.964Z,63.67
2018-08-02T00:09:13.962Z,64.43
2018-08-02T00:10:13.964Z,64.43
2018-08-02T00:11:13.957Z,64.72
2018-08-02T00:12:13.956Z,64.63
2018-08-02T00:13:13.960Z,64.34
2018-08-02T00:14:13.955Z,64.63
2018-08-02T00:15:13.955Z,65.30
2018-08-02T00:16:13.990Z,65.11
2018-08-02T00:17:13.953Z,64.92
2018-08-02T00:18:13.956Z,64.92
2018-08-02T00:19:13.949Z,65.11
2018-08-02T00:20:13.949Z,65.01
2018-08-02T00:21:13.949Z,65.01
2018-08-02T00:22:13.946Z,65.01
2018-08-02T00:23:13.946Z,65.30
2018-08-02T00:24:13.946Z,64.92
2018-08-02T00:25:13.944Z,64.24
2018-08-02T00:26:13.943Z,64.63
2018-08-02T00:27:13.945Z,65.01
2018-08-02T00:28:13.940Z,64.82
2018-08-02T00:29:13.941Z,64.95
2018-08-02T00:30:13.950Z,65.50
2018-08-02T00:31:13.936Z,65.30
2018-08-02T00:32:13.936Z,65.01
2018-08-02T00:33:13.935Z,65.11
2018-08-02T00:34:13.936Z,64.92
2018-08-02T00:35:13.935Z,65.50
2018-08-02T00:36:13.935Z,65.59
2018-08-02T00:37:13.932Z,65.50
2018-08-02T00:38:13.932Z,64.82
2018-08-02T00:39:13.929Z,65.59
2018-08-02T00:40:13.929Z,65.30
2018-08-02T00:41:13.928Z,65.50
2018-08-02T00:42:13.927Z,65.30
2018-08-02T00:43:13.924Z,65.59
2018-08-02T00:44:13.926Z,65.88
2018-08-02T00:45:13.922Z,65.98
2018-08-02T00:46:13.921Z,66.08
2018-08-02T00:47:13.917Z,65.98
2018-08-02T00:48:13.924Z,66.17
2018-08-02T00:49:13.925Z,65.50
2018-08-02T00:50:13.918Z,66.08
2018-08-02T00:51:13.917Z,65.98
2018-08-02T00:52:13.915Z,66.17
2018-08-02T00:53:13.912Z,66.36
2018-08-02T00:54:13.910Z,66.66
2018-08-02T00:55:13.907Z,66.85
2018-08-02T00:56:13.911Z,67.10
2018-08-02T00:57:13.912Z,66.94
2018-08-02T00:58:13.909Z,67.88
2018-08-02T00:59:13.920Z,66.94
2018-08-02T01:00:13.903Z,66.91
2018-08-02T01:01:13.949Z,66.27
2018-08-02T01:02:13.910Z,67.58
2018-08-02T01:03:13.905Z,67.30
2018-08-02T01:04:13.900Z,67.30
2018-08-02T01:05:13.907Z,67.40
2018-08-02T01:06:13.897Z,67.00
2018-08-02T01:07:13.894Z,67.10
2018-08-02T01:08:13.894Z,67.00
2018-08-02T01:09:13.897Z,67.78
2018-08-02T01:10:13.896Z,68.07
2018-08-02T01:11:13.893Z,67.30
2018-08-02T01:12:13.894Z,67.88
2018-08-02T01:13:13.894Z,68.07
2018-08-02T01:14:13.887Z,68.16
2018-08-02T01:15:13.892Z,68.07
2018-08-02T01:16:13.883Z,67.88
2018-08-02T01:17:13.884Z,68.55
2018-08-02T01:18:13.888Z,68.65
2018-08-02T01:19:13.884Z,68.74
2018-08-02T01:20:13.883Z,68.26
2018-08-02T01:21:13.918Z,67.88
2018-08-02T01:22:13.877Z,68.65
2018-08-02T01:23:13.877Z,68.84
2018-08-02T01:24:13.879Z,68.84
2018-08-02T01:25:13.877Z,69.32
2018-08-02T01:26:13.877Z,69.42
2018-08-02T01:27:13.876Z,69.23
2018-08-02T01:28:13.871Z,68.93
2018-08-02T01:29:13.867Z,69.32
2018-08-02T01:30:13.870Z,69.42
2018-08-02T01:31:13.867Z,70.09
2018-08-02T01:32:13.868Z,70.00
2018-08-02T01:33:13.868Z,69.77
2018-08-02T01:34:13.870Z,69.90
2018-08-02T01:35:13.862Z,70.06
2018-08-02T01:36:13.861Z,70.19
2018-08-02T01:37:13.860Z,70.28
2018-08-02T01:38:37.820Z,69.87
2018-08-02T01:39:13.860Z,69.80
2018-08-02T01:40:13.865Z,70.28
2018-08-02T01:41:13.865Z,70.44
2018-08-02T01:42:13.855Z,70.25
2018-08-02T01:43:13.853Z,70.15
2018-08-02T01:44:13.848Z,70.44
2018-08-02T01:45:13.849Z,70.19
2018-08-02T01:46:13.853Z,69.77
2018-08-02T01:47:13.849Z,70.35
2018-08-02T01:48:13.856Z,70.35
2018-08-02T01:49:13.843Z,70.44
2018-08-02T01:50:13.845Z,70.44
2018-08-02T01:51:13.855Z,71.12
2018-08-02T01:52:13.838Z,71.12
2018-08-02T01:53:13.863Z,71.22
2018-08-02T01:54:13.841Z,71.22
2018-08-02T01:55:13.834Z,71.41
2018-08-02T01:56:13.841Z,71.31
2018-08-02T01:57:13.833Z,71.22
2018-08-02T01:58:13.833Z,71.41
2018-08-02T01:59:13.833Z,71.41
2018-08-02T02:00:13.832Z,71.41
2018-08-02T02:01:13.831Z,71.60
2018-08-02T02:02:13.826Z,71.60
2018-08-02T02:03:13.829Z,72.08
2018-08-02T02:04:13.839Z,72.08
2018-08-02T02:05:13.821Z,72.08
2018-08-02T02:06:13.828Z,72.47
2018-08-02T02:07:13.820Z,72.37
2018-08-02T02:08:13.821Z,72.47
2018-08-02T02:09:13.826Z,72.53
2018-08-02T02:10:13.817Z,72.37
2018-08-02T02:11:13.812Z,72.43
2018-08-02T02:12:13.812Z,72.14
2018-08-02T02:13:13.811Z,72.63
2018-08-02T02:14:13.859Z,72.63
2018-08-02T02:15:13.806Z,72.53
2018-08-02T02:16:13.806Z,72.63
2018-08-02T02:17:13.808Z,73.01
2018-08-02T02:18:13.816Z,72.56
2018-08-02T02:19:13.803Z,73.01
2018-08-02T02:20:13.803Z,72.85
2018-08-02T02:21:13.809Z,73.01
2018-08-02T02:22:13.799Z,72.75
2018-08-02T02:23:13.806Z,73.10
2018-08-02T02:24:13.804Z,72.75
2018-08-02T02:25:13.792Z,72.81
2018-08-02T02:26:13.792Z,72.91
2018-08-02T02:27:13.796Z,73.20
2018-08-02T02:28:13.788Z,72.81
2018-08-02T02:29:13.792Z,72.81
2018-08-02T02:30:13.796Z,72.81
2018-08-02T02:31:13.785Z,72.81
2018-08-02T02:32:13.781Z,73.30
2018-08-02T02:33:13.784Z,73.30
2018-08-02T02:34:13.800Z,72.91
2018-08-02T02:35:13.787Z,72.91
2018-08-02T02:36:13.783Z,73.10
2018-08-02T02:37:13.791Z,73.58
2018-08-02T02:38:13.783Z,72.81
2018-08-02T02:39:13.771Z,72.81
2018-08-02T02:40:13.779Z,73.10
2018-08-02T02:41:13.773Z,73.01
2018-08-02T02:42:13.777Z,73.20
2018-08-02T02:43:13.783Z,73.20
2018-08-02T02:44:13.769Z,73.20
2018-08-02T02:45:13.773Z,73.68
2018-08-02T02:46:13.768Z,73.01
2018-08-02T02:47:13.766Z,73.78
2018-08-02T02:48:13.757Z,73.01
2018-08-02T02:49:13.760Z,73.10
2018-08-02T02:50:13.768Z,73.58
2018-08-02T02:51:13.750Z,73.68
2018-08-02T02:52:13.753Z,73.58
2018-08-02T02:53:13.758Z,73.30
2018-08-02T02:54:13.777Z,73.49
2018-08-02T02:55:13.781Z,73.58
2018-08-02T02:56:13.755Z,73.88
2018-08-02T02:57:13.746Z,73.58
2018-08-02T02:58:13.747Z,73.39
2018-08-02T02:59:13.744Z,73.58
2018-08-02T03:00:13.748Z,73.68
2018-08-02T03:01:13.744Z,73.58
2018-08-02T03:02:13.737Z,73.49
2018-08-02T03:03:13.738Z,73.10
2018-08-02T03:04:13.736Z,73.97
2018-08-02T03:05:13.737Z,73.58
2018-08-02T03:06:13.738Z,73.58
2018-08-02T03:07:13.751Z,73.97
2018-08-02T03:08:13.730Z,74.16
2018-08-02T03:09:13.729Z,73.20
2018-08-02T03:10:13.742Z,73.97
2018-08-02T03:11:13.724Z,73.68
2018-08-02T03:12:13.725Z,74.36
2018-08-02T03:13:13.727Z,73.97
2018-08-02T03:14:13.724Z,74.36
2018-08-02T03:15:13.717Z,74.07
2018-08-02T03:16:13.715Z,74.65
2018-08-02T03:17:13.712Z,74.36
2018-08-02T03:18:13.721Z,74.16
2018-08-02T03:19:13.716Z,74.26
2018-08-02T03:20:13.764Z,74.07
2018-08-02T03:21:13.717Z,74.65
2018-08-02T03:22:13.710Z,74.55
2018-08-02T03:23:13.711Z,74.26
2018-08-02T03:24:13.723Z,74.36
2018-08-02T03:25:13.704Z,74.16
2018-08-02T03:26:13.709Z,74.36
2018-08-02T03:27:13.703Z,74.26
2018-08-02T03:28:13.696Z,74.36
2018-08-02T03:29:13.698Z,74.36
2018-08-02T03:30:13.694Z,74.55
2018-08-02T03:31:13.696Z,74.93
2018-08-02T03:32:13.693Z,74.61
2018-08-02T03:33:13.701Z,74.84
2018-08-02T03:34:13.690Z,75.23
2018-08-02T03:35:13.690Z,75.13
2018-08-02T03:36:13.686Z,75.19
2018-08-02T03:37:13.683Z,74.80
2018-08-02T03:38:13.681Z,75.28
2018-08-02T03:39:13.681Z,74.90
2018-08-02T03:40:13.678Z,74.99
2018-08-02T03:41:13.677Z,75.19
2018-08-02T03:42:13.678Z,75.09
2018-08-02T03:43:13.677Z,75.09
2018-08-02T03:44:13.680Z,75.38
2018-08-02T03:45:13.681Z,75.76
2018-08-02T03:46:13.677Z,75.86
2018-08-02T03:47:13.667Z,75.28
2018-08-02T03:48:13.670Z,75.76
2018-08-02T03:49:13.668Z,75.67
2018-08-02T03:50:13.669Z,75.76
2018-08-02T03:51:13.662Z,75.48
2018-08-02T03:52:13.667Z,75.67
2018-08-02T03:53:13.655Z,75.57
2018-08-02T03:54:13.655Z,75.57
2018-08-02T03:55:13.655Z,75.86
2018-08-02T03:56:13.655Z,75.67
2018-08-02T03:57:13.654Z,75.76
2018-08-02T03:58:13.660Z,75.76
2018-08-02T03:59:13.647Z,75.96
2018-08-02T04:00:13.646Z,75.86
2018-08-02T04:01:13.642Z,75.86
2018-08-02T04:02:13.644Z,75.48
2018-08-02T04:03:13.643Z,75.76
2018-08-02T04:04:13.648Z,75.57
2018-08-02T04:05:13.643Z,76.06
2018-08-02T04:06:13.637Z,75.86
2018-08-02T04:07:13.633Z,75.67
2018-08-02T04:08:13.631Z,75.76
2018-08-02T04:09:13.635Z,76.44
2018-08-02T04:10:13.638Z,76.44
2018-08-02T04:11:13.631Z,76.34
2018-08-02T04:12:13.624Z,76.06
2018-08-02T04:13:13.623Z,76.25
2018-08-02T04:14:13.626Z,76.15
2018-08-02T04:15:13.619Z,76.82
2018-08-02T04:16:13.618Z,76.63
2018-08-02T04:17:13.619Z,76.53
2018-08-02T04:18:13.616Z,76.44
2018-08-02T04:19:13.614Z,76.63
2018-08-02T04:20:13.609Z,76.63
2018-08-02T04:21:13.630Z,76.53
2018-08-02T04:22:13.620Z,76.82
2018-08-02T04:23:13.609Z,76.53
2018-08-02T04:24:13.607Z,76.73
2018-08-02T04:25:13.607Z,76.73
2018-08-02T04:26:13.605Z,76.73
2018-08-02T04:27:13.603Z,76.73
2018-08-02T04:28:13.603Z,76.73
2018-08-02T04:29:13.599Z,76.63
2018-08-02T04:30:13.597Z,76.53
2018-08-02T04:31:13.596Z,76.92
2018-08-02T04:32:13.593Z,76.63
2018-08-02T04:33:13.595Z,77.21
2018-08-02T04:34:13.588Z,77.01
2018-08-02T04:35:13.585Z,77.11
2018-08-02T04:36:13.586Z,76.92
2018-08-02T04:37:13.590Z,77.01
2018-08-02T04:38:13.583Z,77.11
2018-08-02T04:39:13.580Z,77.21
2018-08-02T04:40:13.585Z,77.31
2018-08-02T04:41:13.584Z,76.92
2018-08-02T04:42:13.639Z,77.50
2018-08-02T04:43:13.571Z,77.59
2018-08-02T04:44:13.570Z,77.11
2018-08-02T04:45:13.573Z,77.11
2018-08-02T04:46:13.576Z,77.69
2018-08-02T04:47:13.568Z,77.21
2018-08-02T04:48:13.569Z,77.11
2018-08-02T04:49:13.566Z,77.31
2018-08-02T04:50:13.566Z,77.21
2018-08-02T04:51:13.607Z,76.92
2018-08-02T04:52:13.561Z,76.92
2018-08-02T04:53:13.559Z,77.21
2018-08-02T04:54:13.562Z,77.01
2018-08-02T04:55:13.554Z,77.21
2018-08-02T04:56:13.552Z,76.92
2018-08-02T04:57:13.552Z,76.63
2018-08-02T04:58:13.551Z,76.63
2018-08-02T04:59:13.549Z,76.82
2018-08-02T05:00:13.548Z,76.92
2018-08-02T05:01:13.582Z,76.73
2018-08-02T05:02:13.543Z,76.53
2018-08-02T05:03:13.536Z,76.38
2018-08-02T05:04:13.539Z,76.48
2018-08-02T05:05:13.540Z,76.76
2018-08-02T05:06:13.544Z,76.57
2018-08-02T05:07:13.538Z,76.28
2018-08-02T05:08:13.587Z,76.48
2018-08-02T05:09:13.530Z,75.51
2018-08-02T05:10:13.529Z,75.99
2018-08-02T05:11:13.528Z,76.09
2018-08-02T05:12:13.531Z,75.99
2018-08-02T05:13:13.533Z,75.99
2018-08-02T05:14:13.524Z,75.99
2018-08-02T05:15:13.522Z,75.61
2018-08-02T05:16:13.527Z,75.90
2018-08-02T05:17:13.524Z,75.90
2018-08-02T05:18:13.516Z,75.71
2018-08-02T05:19:13.515Z,75.51
2018-08-02T05:20:13.514Z,76.48
2018-08-02T05:21:13.517Z,76.28
2018-08-02T05:22:13.563Z,76.09
2018-08-02T05:23:13.513Z,75.61
2018-08-02T05:24:13.514Z,75.80
2018-08-02T05:25:13.512Z,75.93
2018-08-02T05:26:13.533Z,75.74
2018-08-02T05:27:13.510Z,75.45
2018-08-02T05:28:13.514Z,75.65
2018-08-02T05:29:13.512Z,74.97
2018-08-02T05:30:13.507Z,75.07
2018-08-02T05:31:13.506Z,74.68
2018-08-02T05:32:13.504Z,74.30
2018-08-02T05:33:13.506Z,74.97
2018-08-02T05:34:13.517Z,75.26
2018-08-02T05:35:13.626Z,74.58
2018-08-02T05:36:13.876Z,74.62
2018-08-02T05:37:13.522Z,74.62
2018-08-02T05:38:13.507Z,74.52
2018-08-02T05:39:13.527Z,74.05
2018-08-02T05:40:13.546Z,73.18
2018-08-02T05:41:13.512Z,73.95
2018-08-02T05:42:13.508Z,73.41
2018-08-02T05:43:13.507Z,72.92
2018-08-02T05:44:13.507Z,72.73
2018-08-02T05:45:13.506Z,72.15
2018-08-02T05:46:13.511Z,72.15
2018-08-02T05:47:13.503Z,72.09
2018-08-02T05:48:13.502Z,71.70
2018-08-02T05:49:13.507Z,71.61
2018-08-02T05:50:13.511Z,71.90
2018-08-02T05:51:13.504Z,71.22
2018-08-02T05:52:13.512Z,70.94
2018-08-02T05:53:13.544Z,71.06
2018-08-02T05:54:13.512Z,70.29
2018-08-02T05:55:13.508Z,70.58
2018-08-02T05:56:13.514Z,69.52
2018-08-02T05:57:13.589Z,69.23
2018-08-02T05:58:13.515Z,69.52
2018-08-02T05:59:13.516Z,69.13
2018-08-02T06:00:13.517Z,69.04
2018-08-02T06:01:13.515Z,69.46
2018-08-02T06:02:13.520Z,68.40
2018-08-02T06:03:13.523Z,68.01
2018-08-02T06:04:13.520Z,68.20
2018-08-02T06:05:13.520Z,68.01
2018-08-02T06:06:13.522Z,68.01
2018-08-02T06:07:13.523Z,68.40
2018-08-02T06:08:13.539Z,68.49
2018-08-02T06:09:13.526Z,68.52
2018-08-02T06:10:13.529Z,68.33
2018-08-02T06:11:13.535Z,67.27
2018-08-02T06:12:13.586Z,66.91
2018-08-02T06:13:13.547Z,67.21
2018-08-02T06:14:13.537Z,66.82
2018-08-02T06:15:13.541Z,66.66
2018-08-02T06:16:13.545Z,65.50
2018-08-02T06:17:13.548Z,65.40
2018-08-02T06:18:13.549Z,65.20
2018-08-02T06:19:13.552Z,65.75
2018-08-02T06:20:13.556Z,66.17
2018-08-02T06:21:13.555Z,66.17
2018-08-02T06:22:13.557Z,66.37
2018-08-02T06:23:13.560Z,66.27
2018-08-02T06:24:13.609Z,66.47
2018-08-02T06:25:13.568Z,66.91
2018-08-02T06:26:13.572Z,67.11
2018-08-02T06:27:13.572Z,67.21
2018-08-02T06:28:13.598Z,66.63
2018-08-02T06:29:13.601Z,67.98
2018-08-02T06:30:13.624Z,68.24
2018-08-02T06:31:13.582Z,68.24
2018-08-02T06:32:13.611Z,69.20
2018-08-02T06:33:13.605Z,68.82
2018-08-02T06:34:13.595Z,69.20
2018-08-02T06:35:13.597Z,68.91
2018-08-02T06:36:13.601Z,68.46
2018-08-02T06:37:13.597Z,68.27
2018-08-02T06:38:13.599Z,67.18
2018-08-02T06:39:13.606Z,65.53
2018-08-02T06:40:13.607Z,64.95
2018-08-02T06:41:13.612Z,65.17
2018-08-02T06:42:13.619Z,65.17
2018-08-02T06:43:13.626Z,65.17
2018-08-02T06:44:13.619Z,64.40
2018-08-02T06:45:13.664Z,63.92
2018-08-02T06:46:13.639Z,64.01
2018-08-02T06:47:13.628Z,64.85
2018-08-02T06:48:13.636Z,65.30
2018-08-02T06:49:13.636Z,66.37
2018-08-02T06:50:13.634Z,66.85
2018-08-02T06:51:13.638Z,66.95
2018-08-02T06:52:13.647Z,67.05
2018-08-02T06:53:13.642Z,67.14
2018-08-02T06:54:13.648Z,67.27
2018-08-02T06:55:13.652Z,66.78
2018-08-02T06:56:13.656Z,66.43
2018-08-02T06:57:13.662Z,66.05
2018-08-02T06:58:13.659Z,64.50
2018-08-02T06:59:13.677Z,63.46
2018-08-02T07:00:13.667Z,63.69
2018-08-02T07:01:13.674Z,62.62
2018-08-02T07:02:13.674Z,63.20
2018-08-02T07:03:13.679Z,62.33
2018-08-02T07:04:13.678Z,62.43
2018-08-02T07:05:13.685Z,62.26
2018-08-02T07:06:13.692Z,61.10
2018-08-02T07:07:13.692Z,60.32
2018-08-02T07:08:13.698Z,60.45
2018-08-02T07:09:13.704Z,60.25
2018-08-02T07:10:13.707Z,59.67
2018-08-02T07:11:13.710Z,59.48
2018-08-02T07:12:13.719Z,58.73
2018-08-02T07:13:13.726Z,58.54
2018-08-02T07:14:13.723Z,59.03
2018-08-02T07:15:13.728Z,58.64
2018-08-02T07:16:13.733Z,58.05
2018-08-02T07:17:13.737Z,58.15
2018-08-02T07:18:13.807Z,58.64
2018-08-02T07:19:13.743Z,58.73
2018-08-02T07:20:13.750Z,58.95
2018-08-02T07:21:13.755Z,56.72
2018-08-02T07:22:13.758Z,57.31
2018-08-02T07:23:13.765Z,57.31
2018-08-02T07:24:13.774Z,57.21
2018-08-02T07:25:13.778Z,57.23
2018-08-02T07:26:13.783Z,55.78
2018-08-02T07:27:13.780Z,57.21
2018-08-02T07:28:13.791Z,57.31
2018-08-02T07:29:13.810Z,57.11
2018-08-02T07:30:13.801Z,58.08
2018-08-02T07:31:13.803Z,58.37
2018-08-02T07:32:13.808Z,57.89
2018-08-02T07:33:13.816Z,58.47
2018-08-02T07:34:13.818Z,58.47
2018-08-02T07:35:13.824Z,57.40
2018-08-02T07:36:13.833Z,57.11
2018-08-02T07:37:13.837Z,58.18
2018-08-02T07:38:13.840Z,58.40
2018-08-02T07:39:13.846Z,57.92
2018-08-02T07:40:13.851Z,57.26
2018-08-02T07:41:13.855Z,55.90
2018-08-02T07:42:13.863Z,55.90
2018-08-02T07:43:13.985Z,55.61
2018-08-02T07:44:13.975Z,55.51
2018-08-02T07:45:13.892Z,55.49
2018-08-02T07:46:13.889Z,55.98
2018-08-02T07:47:13.896Z,56.77
2018-08-02T07:48:13.899Z,56.20
2018-08-02T07:49:13.906Z,54.74
2018-08-02T07:50:13.930Z,55.93
2018-08-02T07:51:13.928Z,54.47
2018-08-02T07:52:13.921Z,55.05
2018-08-02T07:53:13.946Z,54.21
2018-08-02T07:54:13.946Z,53.62
2018-08-02T07:55:13.949Z,53.23
2018-08-02T07:56:13.965Z,53.42
2018-08-02T07:57:13.973Z,53.04
2018-08-02T07:58:13.965Z,53.40
2018-08-02T07:59:13.971Z,54.28
2018-08-02T08:00:13.970Z,54.66
2018-08-02T08:01:13.977Z,55.25
2018-08-02T08:02:13.988Z,55.86
2018-08-02T08:03:13.993Z,54.16
2018-08-02T08:04:13.998Z,53.02
2018-08-02T08:05:14.005Z,51.78
2018-08-02T08:06:14.009Z,51.58
2018-08-02T08:07:14.018Z,50.73
2018-08-02T08:08:14.028Z,49.56
2018-08-02T08:09:14.031Z,49.85
2018-08-02T08:10:14.036Z,49.66
2018-08-02T08:11:14.142Z,50.34
2018-08-02T08:12:14.059Z,50.43
2018-08-02T08:13:14.059Z,50.43
2018-08-02T08:14:14.069Z,49.78
2018-08-02T08:15:14.078Z,48.02
2018-08-02T08:16:14.091Z,48.02
2018-08-02T08:17:14.090Z,48.49
2018-08-02T08:18:14.095Z,48.49
2018-08-02T08:19:14.107Z,49.24
2018-08-02T08:20:15.943Z,49.63
2018-08-02T08:21:15.831Z,49.90
2018-08-02T08:22:15.889Z,50.29
2018-08-02T08:23:14.165Z,51.04
2018-08-02T08:24:14.139Z,51.73
2018-08-02T08:25:14.145Z,51.17
2018-08-02T08:26:14.188Z,50.58
2018-08-02T08:27:14.163Z,49.80
2018-08-02T08:28:14.169Z,50.29
2018-08-02T08:29:14.185Z,50.60
2018-08-02T08:30:14.188Z,49.76
2018-08-02T08:31:14.195Z,49.39
2018-08-02T08:32:14.263Z,48.71
2018-08-02T08:33:14.236Z,49.29
2018-08-02T08:34:14.228Z,49.22
2018-08-02T08:35:14.228Z,48.65
2018-08-02T08:36:14.342Z,48.07
2018-08-02T08:37:23.622Z,46.53
2018-08-02T08:38:14.252Z,46.92
2018-08-02T08:39:14.260Z,46.41
2018-08-02T08:40:14.281Z,46.80
2018-08-02T08:41:14.281Z,47.56
2018-08-02T08:42:14.291Z,47.73
2018-08-02T08:43:14.302Z,48.51
2018-08-02T08:44:14.306Z,49.27
2018-08-02T08:45:14.312Z,49.27
2018-08-02T08:46:14.359Z,49.76
2018-08-02T08:47:14.360Z,49.02
2018-08-02T08:48:14.346Z,46.89
2018-08-02T08:49:14.351Z,46.80
2018-08-02T08:50:14.365Z,46.80
2018-08-02T08:51:14.366Z,46.99
2018-08-02T08:52:14.412Z,47.17
2018-08-02T08:53:14.386Z,48.44
2018-08-02T08:54:14.396Z,48.26
2018-08-02T08:55:14.415Z,47.41
2018-08-02T08:56:14.416Z,46.72
2018-08-02T08:57:14.426Z,45.65
2018-08-02T08:58:14.434Z,45.55
2018-08-02T08:59:14.439Z,45.94
2018-08-02T09:00:14.450Z,45.84
2018-08-02T09:01:14.488Z,45.67
2018-08-02T09:02:14.476Z,45.76
2018-08-02T09:03:14.544Z,44.23
2018-08-02T09:04:14.488Z,44.83
2018-08-02T09:05:14.507Z,44.37
2018-08-02T09:06:14.515Z,42.21
2018-08-02T09:07:14.522Z,42.43
2018-08-02T09:08:14.541Z,41.96
2018-08-02T09:09:14.570Z,40.72
2018-08-02T09:10:14.559Z,39.01
2018-08-02T09:11:14.579Z,38.44
2018-08-02T09:12:14.574Z,37.77
2018-08-02T09:13:14.590Z,37.89
2018-08-02T09:14:14.600Z,37.16
2018-08-02T09:15:14.604Z,37.36
2018-08-02T09:16:14.642Z,37.93
2018-08-02T09:17:14.630Z,38.72
2018-08-02T09:18:14.639Z,38.13
2018-08-02T09:19:14.652Z,38.13
2018-08-02T09:20:14.655Z,38.03
2018-08-02T09:21:14.673Z,38.82
2018-08-02T09:22:14.689Z,38.72
2018-08-02T09:23:14.699Z,37.34
2018-08-02T09:24:14.741Z,37.99
2018-08-02T09:25:14.710Z,39.35
2018-08-02T09:26:14.731Z,39.45
2018-08-02T09:27:14.733Z,39.84
2018-08-02T09:28:14.772Z,39.64
2018-08-02T09:29:14.770Z,39.74
2018-08-02T09:30:14.783Z,39.35
2018-08-02T09:31:14.790Z,39.76
2018-08-02T09:32:14.855Z,39.00
2018-08-02T09:33:14.941Z,38.01
2018-08-02T09:34:14.817Z,38.40
2018-08-02T09:35:14.839Z,38.21
2018-08-02T09:36:14.862Z,38.50
2018-08-02T09:37:14.852Z,39.21
2018-08-02T09:38:14.861Z,37.40
2018-08-02T09:39:14.895Z,35.54
2018-08-02T09:40:14.891Z,35.84
2018-08-02T09:41:14.909Z,36.02
2018-08-02T09:42:14.918Z,37.22
2018-08-02T09:43:14.926Z,35.13
2018-08-02T09:44:14.943Z,35.31
2018-08-02T09:45:14.953Z,37.15
2018-08-02T09:46:14.987Z,37.23
2018-08-02T09:47:14.976Z,38.19
2018-08-02T09:48:14.988Z,38.39
2018-08-02T09:49:15.011Z,38.48
2018-08-02T09:50:15.018Z,38.68
2018-08-02T09:51:15.062Z,38.31
2018-08-02T09:52:15.061Z,38.50
2018-08-02T09:53:15.056Z,39.58
2018-08-02T09:54:15.091Z,37.42
2018-08-02T09:55:15.095Z,38.11
2018-08-02T09:56:15.106Z,37.55
2018-08-02T09:57:15.129Z,37.26
2018-08-02T09:58:15.119Z,37.26
2018-08-02T09:59:15.132Z,36.32
2018-08-02T10:00:15.171Z,35.54
2018-08-02T10:01:15.169Z,35.35
2018-08-02T10:02:15.168Z,35.56
2018-08-02T10:03:16.110Z,34.61
2018-08-02T10:04:15.199Z,33.26
2018-08-02T10:05:15.225Z,31.91
2018-08-02T10:06:15.235Z,31.30
2018-08-02T10:07:15.234Z,32.26
2018-08-02T10:08:15.244Z,33.61
2018-08-02T10:09:15.276Z,33.51
2018-08-02T10:10:15.290Z,34.27
2018-08-02T10:11:15.286Z,34.84
2018-08-02T10:12:15.292Z,34.82
2018-08-02T10:13:15.306Z,35.67
2018-08-02T10:14:15.323Z,36.54
2018-08-02T10:15:15.334Z,37.23
2018-08-02T10:16:15.350Z,37.23
2018-08-02T10:17:15.361Z,37.95
2018-08-02T10:18:15.372Z,36.59
2018-08-02T10:19:15.386Z,35.23
2018-08-02T10:20:15.399Z,35.03
2018-08-02T10:21:15.414Z,35.63
2018-08-02T10:22:15.434Z,35.53
2018-08-02T10:23:15.456Z,35.39
2018-08-02T10:24:15.456Z,36.36
2018-08-02T10:25:15.461Z,36.36
2018-08-02T10:26:15.494Z,36.75
2018-08-02T10:27:15.488Z,36.36
2018-08-02T10:28:15.502Z,37.42
2018-08-02T10:29:15.537Z,37.42
2018-08-02T10:30:15.532Z,37.32
2018-08-02T10:31:15.546Z,37.24
2018-08-02T10:32:15.562Z,37.05
2018-08-02T10:33:15.574Z,36.79
2018-08-02T10:34:15.584Z,36.43
2018-08-02T10:35:15.604Z,34.28
2018-08-02T10:36:15.610Z,33.89
2018-08-02T10:37:16.124Z,34.69
2018-08-02T10:38:15.651Z,34.43
2018-08-02T10:39:15.661Z,32.75
2018-08-02T10:40:15.671Z,33.15
2018-08-02T10:41:15.678Z,33.72
2018-08-02T10:42:15.688Z,33.56
2018-08-02T10:43:15.697Z,33.00
2018-08-02T10:44:15.741Z,32.22
2018-08-02T10:45:15.731Z,31.07
2018-08-02T10:46:15.745Z,30.16
2018-08-02T10:47:15.764Z,30.61
2018-08-02T10:48:15.772Z,32.06
2018-08-02T10:49:15.789Z,33.03
2018-08-02T10:50:15.802Z,33.42
2018-08-02T10:51:15.834Z,33.92
2018-08-02T10:52:15.828Z,32.73
2018-08-02T10:53:15.837Z,33.38
2018-08-02T10:54:15.857Z,34.64
2018-08-02T10:55:15.908Z,35.11
2018-08-02T10:56:15.960Z,35.28
2018-08-02T10:57:15.897Z,36.10
2018-08-02T10:58:15.915Z,34.66
2018-08-02T10:59:15.930Z,34.95
2018-08-02T11:00:15.940Z,34.95
2018-08-02T11:01:15.964Z,34.84
2018-08-02T11:02:16.067Z,35.03
2018-08-02T11:03:15.995Z,35.05
2018-08-02T11:04:16.001Z,34.77
2018-08-02T11:05:16.012Z,34.79
2018-08-02T11:06:16.053Z,32.85
2018-08-02T11:07:16.055Z,31.75
2018-08-02T11:08:16.079Z,33.20
2018-08-02T11:09:16.069Z,33.69
2018-08-02T11:10:16.080Z,34.36
2018-08-02T11:11:16.111Z,34.95
2018-08-02T11:12:16.106Z,34.17
2018-08-02T11:13:16.117Z,34.44
2018-08-02T11:14:16.136Z,35.21
2018-08-02T11:15:16.149Z,35.80
2018-08-02T11:16:16.175Z,35.21
2018-08-02T11:17:16.177Z,35.71
2018-08-02T11:18:16.192Z,35.21
2018-08-02T11:19:16.204Z,34.64
2018-08-02T11:20:16.214Z,34.74
2018-08-02T11:21:16.228Z,34.06
2018-08-02T11:22:16.275Z,34.18
2018-08-02T11:23:16.276Z,34.10
2018-08-02T11:24:16.272Z,33.64
2018-08-02T11:25:16.287Z,32.85
2018-08-02T11:26:16.301Z,31.67
2018-08-02T11:27:16.308Z,32.73
2018-08-02T11:28:16.379Z,32.32
2018-08-02T11:29:16.343Z,33.49
2018-08-02T11:30:16.357Z,33.28
2018-08-02T11:31:16.367Z,34.36
2018-08-02T11:32:16.387Z,33.36
2018-08-02T11:33:16.397Z,34.33
2018-08-02T11:34:16.412Z,34.84
2018-08-02T11:35:16.425Z,35.43
2018-08-02T11:36:16.460Z,35.63
2018-08-02T11:37:16.458Z,35.56
2018-08-02T11:38:16.466Z,34.58
2018-08-02T11:39:16.485Z,33.20
2018-08-02T11:40:16.492Z,33.89
2018-08-02T11:41:16.508Z,34.30
2018-08-02T11:42:16.526Z,33.26
2018-08-02T11:43:16.537Z,31.68
2018-08-02T11:44:16.554Z,31.73
2018-08-02T11:45:16.565Z,33.28
2018-08-02T11:46:16.588Z,34.95
2018-08-02T11:47:16.595Z,33.13
2018-08-02T11:48:16.610Z,31.96
2018-08-02T11:49:16.623Z,32.34
2018-08-02T11:50:16.641Z,32.44
2018-08-02T11:51:16.649Z,31.76
2018-08-02T11:52:16.665Z,32.56
2018-08-02T11:53:16.680Z,32.65
2018-08-02T11:54:16.692Z,32.47
2018-08-02T11:55:16.708Z,31.88
2018-08-02T11:56:16.732Z,31.22
2018-08-02T11:57:16.786Z,30.65
2018-08-02T11:58:16.751Z,29.97
2018-08-02T11:59:16.765Z,29.88
2018-08-02T12:00:16.786Z,30.27
2018-08-02T12:01:16.794Z,29.77
2018-08-02T12:02:16.810Z,29.95
2018-08-02T12:03:16.821Z,30.04
2018-08-02T12:04:16.850Z,30.61
2018-08-02T12:05:16.852Z,30.91
2018-08-02T12:06:16.868Z,30.24
2018-08-02T12:07:16.879Z,29.19
2018-08-02T12:08:16.928Z,28.22
2018-08-02T12:09:16.915Z,27.57
2018-08-02T12:10:16.954Z,26.58
2018-08-02T12:11:16.939Z,26.69
2018-08-02T12:12:16.949Z,26.29
2018-08-02T12:13:16.970Z,26.58
2018-08-02T12:14:16.978Z,27.34
2018-08-02T12:15:16.992Z,27.94
2018-08-02T12:16:17.074Z,27.36
2018-08-02T12:17:17.033Z,26.86
2018-08-02T12:18:17.059Z,27.53
2018-08-02T12:19:17.075Z,28.01
2018-08-02T12:20:17.117Z,27.73
2018-08-02T12:21:17.079Z,26.38
2018-08-02T12:22:17.160Z,25.59
2018-08-02T12:23:17.211Z,26.17
2018-08-02T12:24:17.120Z,26.37
2018-08-02T12:25:17.136Z,26.74
2018-08-02T12:26:17.150Z,27.72
2018-08-02T12:27:17.161Z,28.18
2018-08-02T12:28:17.188Z,28.56
2018-08-02T12:29:17.203Z,28.47
2018-08-02T12:30:17.203Z,28.75
2018-08-02T12:31:17.220Z,29.23
2018-08-02T12:32:17.255Z,29.43
2018-08-02T12:33:17.256Z,29.13
2018-08-02T12:34:17.289Z,29.69
2018-08-02T12:35:17.269Z,29.88
2018-08-02T12:36:17.320Z,30.58
2018-08-02T12:37:17.292Z,30.58
2018-08-02T12:38:17.365Z,30.98
2018-08-02T12:39:17.327Z,29.80
2018-08-02T12:40:17.333Z,29.99
2018-08-02T12:41:17.352Z,30.69
2018-08-02T12:42:17.405Z,29.71
2018-08-02T12:43:17.368Z,29.32
2018-08-02T12:44:17.390Z,29.02
2018-08-02T12:45:17.391Z,29.61
2018-08-02T12:46:18.169Z,30.09
2018-08-02T12:47:17.420Z,30.48
2018-08-02T12:48:17.473Z,30.58
2018-08-02T12:49:17.471Z,29.79
2018-08-02T12:50:17.479Z,29.88
2018-08-02T12:51:17.473Z,29.97
2018-08-02T12:52:17.491Z,30.17